createdAt,value
2019-04-14T00:01:41.052Z,36.82
2019-04-14T00:04:14.071Z,36.83
2019-04-14T00:06:44.031Z,36.84
2019-04-14T00:09:15.947Z,36.86
2019-04-14T00:11:48.125Z,36.84
2019-04-14T00:14:16.635Z,36.87
2019-04-14T00:16:45.077Z,36.86
2019-04-14T00:19:13.598Z,36.84
2019-04-14T00:21:43.203Z,36.85
2019-04-14T00:24:11.742Z,36.86
2019-04-14T00:26:40.279Z,36.85
2019-04-14T00:29:08.968Z,36.83
2019-04-14T00:31:37.456Z,36.83
2019-04-14T00:34:07.501Z,36.82
2019-04-14T00:36:54.499Z,36.88
2019-04-14T00:39:27.400Z,36.85
2019-04-14T00:42:13.019Z,36.76
2019-04-14T00:44:43.309Z,36.84
2019-04-14T00:47:15.883Z,36.84
2019-04-14T00:49:44.265Z,36.80
2019-04-14T00:52:12.786Z,36.83
2019-04-14T00:54:41.425Z,36.88
2019-04-14T00:57:09.837Z,36.83
2019-04-14T00:59:38.347Z,36.83
2019-04-14T01:02:07.739Z,36.85
2019-04-14T01:04:36.234Z,36.78
2019-04-14T01:07:04.696Z,36.88
2019-04-14T01:09:33.141Z,36.89
2019-04-14T01:12:01.865Z,36.90
2019-04-14T01:14:30.563Z,36.90
2019-04-14T01:16:58.968Z,36.87
2019-04-14T01:19:28.662Z,36.93
2019-04-14T01:21:57.234Z,36.92
2019-04-14T01:24:25.674Z,36.90
2019-04-14T01:26:55.031Z,36.93
2019-04-14T01:29:26.190Z,36.96
2019-04-14T01:31:55.700Z,36.97
2019-04-14T01:34:24.378Z,36.96
2019-04-14T01:36:53.935Z,37.03
2019-04-14T01:39:22.483Z,36.99
2019-04-14T01:41:52.019Z,37.00
2019-04-14T01:44:20.518Z,37.02
2019-04-14T01:46:49.886Z,37.05
2019-04-14T01:49:18.490Z,37.03
2019-04-14T01:51:48.534Z,36.98
2019-04-14T01:54:21.573Z,37.06
2019-04-14T01:56:58.128Z,37.08
2019-04-14T01:59:26.630Z,37.07
2019-04-14T02:01:58.817Z,37.00
2019-04-14T02:04:27.192Z,36.97
2019-04-14T02:06:55.609Z,37.02
2019-04-14T02:09:25.149Z,36.97
2019-04-14T02:11:53.655Z,37.07
2019-04-14T02:14:23.264Z,37.13
2019-04-14T02:16:56.963Z,37.11
2019-04-14T02:19:22.097Z,37.08
2019-04-14T02:21:51.911Z,37.11
2019-04-14T02:24:20.512Z,37.19
2019-04-14T02:26:50.169Z,37.09
2019-04-14T02:29:19.053Z,37.05
2019-04-14T02:32:17.327Z,37.12
2019-04-14T02:34:57.453Z,37.13
2019-04-14T02:37:26.299Z,37.11
2019-04-14T02:39:49.393Z,37.11
2019-04-14T02:44:44.214Z,37.10
2019-04-14T02:47:38.572Z,37.03
2019-04-14T02:49:51.570Z,37.08
2019-04-14T02:52:22.279Z,37.05
2019-04-14T02:54:59.991Z,37.04
2019-04-14T02:57:17.377Z,37.06
2019-04-14T02:59:43.097Z,37.07
2019-04-14T03:02:22.861Z,37.08
2019-04-14T03:04:44.875Z,37.00
2019-04-14T03:07:21.839Z,37.06
2019-04-14T03:09:58.642Z,36.97
2019-04-14T03:12:16.876Z,37.01
2019-04-14T03:14:49.861Z,36.94
2019-04-14T03:17:33.371Z,36.97
2019-04-14T03:20:14.039Z,36.93
2019-04-14T03:22:38.922Z,36.99
2019-04-14T03:25:11.560Z,36.99
2019-04-14T03:27:54.729Z,36.96
2019-04-14T03:33:18.442Z,36.89
2019-04-14T03:36:12.085Z,36.96
2019-04-14T03:37:59.447Z,36.92
2019-04-14T03:40:46.321Z,36.98
2019-04-14T03:43:01.588Z,37.01
2019-04-14T03:45:35.758Z,36.98
2019-04-14T03:48:16.935Z,36.90
2019-04-14T03:50:29.188Z,36.97
2019-04-14T03:55:15.977Z,36.81
2019-04-14T03:57:32.793Z,37.03
2019-04-14T04:00:01.216Z,37.06
2019-04-14T04:02:29.640Z,37.07
2019-04-14T04:04:58.029Z,37.12
2019-04-14T04:07:26.446Z,37.08
2019-04-14T04:10:03.134Z,37.16
2019-04-14T04:12:31.564Z,37.09
2019-04-14T04:14:59.971Z,37.06
2019-04-14T04:17:45.226Z,37.12
2019-04-14T04:20:15.300Z,37.10
2019-04-14T04:22:45.635Z,37.10
2019-04-14T04:25:16.160Z,37.04
2019-04-14T04:27:55.560Z,37.06
2019-04-14T04:30:28.296Z,37.01
2019-04-14T04:33:08.632Z,37.04
2019-04-14T04:35:50.818Z,37.08
2019-04-14T04:38:24.745Z,36.92
2019-04-14T04:40:53.296Z,36.93
2019-04-14T04:43:21.718Z,36.97
2019-04-14T04:45:50.123Z,36.84
2019-04-14T04:48:19.632Z,36.96
2019-04-14T04:50:48.181Z,36.92
2019-04-14T04:53:16.613Z,36.98
2019-04-14T04:55:46.095Z,36.93
2019-04-14T04:58:15.215Z,36.81
2019-04-14T05:00:44.813Z,36.87
2019-04-14T05:03:14.613Z,36.88
2019-04-14T05:06:09.109Z,36.87
2019-04-14T05:08:39.344Z,36.87
2019-04-14T05:11:09.733Z,36.77
2019-04-14T05:13:38.838Z,36.74
2019-04-14T05:16:08.530Z,36.79
2019-04-14T05:18:37.740Z,36.68
2019-04-14T05:21:06.406Z,36.72
2019-04-14T05:23:35.015Z,36.68
2019-04-14T05:26:03.457Z,36.56
2019-04-14T05:28:33.207Z,36.56
2019-04-14T05:31:01.657Z,36.64
2019-04-14T05:33:31.406Z,36.61
2019-04-14T05:36:00.011Z,36.57
2019-04-14T05:38:31.059Z,36.54
2019-04-14T05:41:00.330Z,36.52
2019-04-14T05:43:38.673Z,36.52
2019-04-14T05:45:59.199Z,36.46
2019-04-14T05:48:27.611Z,36.40
2019-04-14T05:50:56.013Z,36.40
2019-04-14T05:53:24.533Z,36.33
2019-04-14T05:55:52.932Z,36.36
2019-04-14T05:58:21.334Z,36.36
2019-04-14T06:00:51.386Z,36.36
2019-04-14T06:03:19.877Z,36.32
2019-04-14T06:05:48.275Z,36.30
2019-04-14T06:08:16.746Z,36.27
2019-04-14T06:10:45.143Z,36.26
2019-04-14T06:13:13.534Z,36.23
2019-04-14T06:15:41.930Z,36.17
2019-04-14T06:18:10.366Z,36.20
2019-04-14T06:20:38.783Z,36.16
2019-04-14T06:23:07.186Z,36.11
2019-04-14T06:25:36.451Z,36.09
2019-04-14T06:28:05.066Z,36.09
2019-04-14T06:30:35.102Z,36.07
2019-04-14T06:33:05.121Z,36.09
2019-04-14T06:35:50.272Z,36.07
2019-04-14T06:38:20.307Z,36.08
2019-04-14T06:40:53.019Z,36.04
2019-04-14T06:43:21.427Z,36.03
2019-04-14T06:45:49.880Z,36.02
2019-04-14T06:48:18.263Z,36.01
2019-04-14T06:50:46.771Z,36.01
2019-04-14T06:53:15.424Z,36.00
2019-04-14T06:55:43.868Z,35.93
2019-04-14T06:58:12.268Z,35.90
2019-04-14T07:00:40.684Z,35.84
2019-04-14T07:03:09.074Z,35.81
2019-04-14T07:05:37.504Z,35.74
2019-04-14T07:08:05.890Z,35.72
2019-04-14T07:10:34.351Z,35.69
2019-04-14T07:13:02.741Z,35.62
2019-04-14T07:15:31.163Z,35.62
2019-04-14T07:17:59.551Z,35.56
2019-04-14T07:20:27.961Z,35.56
2019-04-14T07:22:56.369Z,35.52
2019-04-14T07:25:24.783Z,35.48
2019-04-14T07:27:53.170Z,35.47
2019-04-14T07:30:38.387Z,35.45
2019-04-14T07:33:11.412Z,35.42
2019-04-14T07:35:47.211Z,35.41
2019-04-14T07:38:17.244Z,35.37
2019-04-14T07:40:56.527Z,35.36
2019-04-14T07:43:35.584Z,35.35
2019-04-14T07:46:05.668Z,35.33
2019-04-14T07:48:35.701Z,35.29
2019-04-14T07:51:21.791Z,35.27
2019-04-14T07:54:03.884Z,35.24
2019-04-14T07:56:39.661Z,35.21
2019-04-14T07:59:09.690Z,35.15
2019-04-14T08:01:57.607Z,35.12
2019-04-14T08:04:27.647Z,35.07
2019-04-14T08:06:56.398Z,35.04
2019-04-14T08:09:24.805Z,35.00
2019-04-14T08:11:53.729Z,34.93
2019-04-14T08:14:22.246Z,34.86
2019-04-14T08:16:50.634Z,34.78
2019-04-14T08:19:19.127Z,34.75
2019-04-14T08:21:47.517Z,34.66
2019-04-14T08:24:15.943Z,34.63
2019-04-14T08:26:44.329Z,34.61
2019-04-14T08:29:12.811Z,34.54
2019-04-14T08:31:41.198Z,34.48
2019-04-14T08:34:09.630Z,34.44
2019-04-14T08:36:38.015Z,34.39
2019-04-14T08:39:06.543Z,34.41
2019-04-14T08:41:36.653Z,34.40
2019-04-14T08:44:08.349Z,34.39
2019-04-14T08:46:41.364Z,34.38
2019-04-14T08:49:11.475Z,34.40
2019-04-14T08:51:41.502Z,34.36
2019-04-14T08:54:17.307Z,34.34
2019-04-14T08:56:53.048Z,34.34
2019-04-14T08:59:23.088Z,34.30
2019-04-14T09:02:09.401Z,34.33
2019-04-14T09:04:39.430Z,34.27
2019-04-14T09:07:24.294Z,34.24
2019-04-14T09:10:00.036Z,34.21
2019-04-14T09:12:30.080Z,34.17
2019-04-14T09:14:58.460Z,34.13
2019-04-14T09:17:28.254Z,34.09
2019-04-14T09:19:56.727Z,34.02
2019-04-14T09:22:25.119Z,33.96
2019-04-14T09:24:53.683Z,33.90
2019-04-14T09:27:22.095Z,33.84
2019-04-14T09:29:52.283Z,33.78
2019-04-14T09:32:20.975Z,33.69
2019-04-14T09:34:49.361Z,33.62
2019-04-14T09:37:17.777Z,33.55
2019-04-14T09:39:46.234Z,33.48
2019-04-14T09:42:14.634Z,33.38
2019-04-14T09:44:43.029Z,33.29
2019-04-14T09:47:11.449Z,33.20
2019-04-14T09:49:39.832Z,33.05
2019-04-14T09:52:08.280Z,32.95
2019-04-14T09:54:36.705Z,32.86
2019-04-14T09:57:05.129Z,32.76
2019-04-14T09:59:33.599Z,32.58
2019-04-14T10:02:02.027Z,32.21
2019-04-14T10:04:30.472Z,31.99
2019-04-14T10:06:59.078Z,31.81
2019-04-14T10:09:27.883Z,31.60
2019-04-14T10:11:56.832Z,31.33
2019-04-14T10:14:25.219Z,31.12
2019-04-14T10:16:53.688Z,30.98
2019-04-14T10:19:22.149Z,30.78
2019-04-14T10:21:50.588Z,30.56
2019-04-14T10:24:18.986Z,30.38
2019-04-14T10:26:47.394Z,30.13
2019-04-14T10:29:15.787Z,29.98
2019-04-14T10:31:44.194Z,29.64
2019-04-14T10:34:12.585Z,29.41
2019-04-14T10:36:41.027Z,29.13
2019-04-14T10:39:09.412Z,28.67
2019-04-14T10:41:37.800Z,28.34
2019-04-14T10:44:06.187Z,27.51
2019-04-14T10:46:34.734Z,25.90
2019-04-14T10:49:03.184Z,24.80
2019-04-14T10:51:34.061Z,24.44
2019-04-14T10:54:01.804Z,23.65
2019-04-14T10:56:30.705Z,22.95
2019-04-14T10:58:59.178Z,22.05
2019-04-14T11:01:27.564Z,21.50
2019-04-14T11:03:55.952Z,20.79
2019-04-14T11:06:26.346Z,20.33
2019-04-14T11:08:54.742Z,19.67
2019-04-14T11:11:23.129Z,19.28
2019-04-14T11:13:51.524Z,18.97
2019-04-14T11:16:19.904Z,18.66
2019-04-14T11:18:48.307Z,18.38
2019-04-14T11:21:16.765Z,17.92
2019-04-14T11:23:45.160Z,18.02
2019-04-14T11:26:13.551Z,17.85
2019-04-14T11:28:41.944Z,17.70
2019-04-14T11:31:10.687Z,17.66
2019-04-14T11:33:57.405Z,17.52
2019-04-14T11:36:27.419Z,17.27
2019-04-14T11:38:57.523Z,17.05
2019-04-14T11:41:25.917Z,16.70
2019-04-14T11:43:54.348Z,16.52
2019-04-14T11:46:22.834Z,16.18
2019-04-14T11:48:51.269Z,16.17
2019-04-14T11:51:19.689Z,15.78
2019-04-14T11:53:48.165Z,15.70
2019-04-14T11:56:16.671Z,15.56
2019-04-14T11:58:45.101Z,15.45
2019-04-14T12:01:24.500Z,15.26
2019-04-14T12:04:10.908Z,15.23
2019-04-14T12:06:49.677Z,15.04
2019-04-14T12:09:19.793Z,14.60
2019-04-14T12:11:48.191Z,14.60
2019-04-14T12:14:16.601Z,14.53
2019-04-14T12:16:44.989Z,14.41
2019-04-14T12:19:13.391Z,14.26
2019-04-14T12:21:41.794Z,13.88
2019-04-14T12:24:10.324Z,13.71
2019-04-14T12:26:38.719Z,13.36
2019-04-14T12:29:07.139Z,13.35
2019-04-14T12:31:35.530Z,13.00
2019-04-14T12:34:03.957Z,12.98
2019-04-14T12:36:32.345Z,12.68
2019-04-14T12:39:00.798Z,12.45
2019-04-14T12:41:31.102Z,12.32
2019-04-14T12:44:01.266Z,12.37
2019-04-14T12:46:33.984Z,12.51
2019-04-14T12:49:20.622Z,12.55
2019-04-14T12:51:56.472Z,12.92
2019-04-14T12:54:26.267Z,13.05
2019-04-14T12:56:54.645Z,13.07
2019-04-14T12:59:23.829Z,12.90
2019-04-14T13:01:59.467Z,12.88
2019-04-14T13:04:27.902Z,12.85
2019-04-14T13:06:56.301Z,12.86
2019-04-14T13:09:24.694Z,12.84
2019-04-14T13:11:53.088Z,12.77
2019-04-14T13:14:21.589Z,12.72
2019-04-14T13:16:49.979Z,12.60
2019-04-14T13:19:18.387Z,12.58
2019-04-14T13:21:46.781Z,12.55
2019-04-14T13:24:15.173Z,12.50
2019-04-14T13:26:45.198Z,12.48
2019-04-14T13:29:13.963Z,12.46
2019-04-14T13:31:42.367Z,12.39
2019-04-14T13:34:10.764Z,12.36
2019-04-14T13:36:39.162Z,12.30
2019-04-14T13:39:07.823Z,12.32
2019-04-14T13:41:36.763Z,12.36
2019-04-14T13:44:05.510Z,12.50
2019-04-14T13:46:33.910Z,12.40
2019-04-14T13:49:02.300Z,12.58
2019-04-14T13:51:30.695Z,12.58
2019-04-14T13:53:59.261Z,12.63
2019-04-14T13:56:27.617Z,12.91
2019-04-14T13:58:55.998Z,13.45
2019-04-14T14:01:24.477Z,14.21
2019-04-14T14:03:52.948Z,14.94
2019-04-14T14:06:21.357Z,15.53
2019-04-14T14:08:49.767Z,16.25
2019-04-14T14:11:34.924Z,16.77
2019-04-14T14:14:07.627Z,17.35
2019-04-14T14:16:54.108Z,17.93
2019-04-14T14:19:24.155Z,18.43
2019-04-14T14:21:54.205Z,18.87
2019-04-14T14:24:24.237Z,19.27
2019-04-14T14:26:54.294Z,19.68
2019-04-14T14:29:22.687Z,20.01
2019-04-14T14:31:51.648Z,20.26
2019-04-14T14:34:20.042Z,20.51
2019-04-14T14:36:48.429Z,20.73
2019-04-14T14:39:18.520Z,21.06
2019-04-14T14:41:46.948Z,21.29
2019-04-14T14:44:15.344Z,21.48
2019-04-14T14:46:45.378Z,21.75
2019-04-14T14:49:21.008Z,21.88
2019-04-14T14:51:54.083Z,22.11
2019-04-14T14:54:22.468Z,22.31
2019-04-14T14:56:50.898Z,22.47
2019-04-14T14:59:19.311Z,22.58
2019-04-14T15:01:47.730Z,22.71
2019-04-14T15:04:18.864Z,22.90
2019-04-14T15:06:46.245Z,22.58
2019-04-14T15:09:14.646Z,22.81
2019-04-14T15:11:43.071Z,22.92
2019-04-14T15:14:11.545Z,22.76
2019-04-14T15:16:40.092Z,22.81
2019-04-14T15:19:08.430Z,23.07
2019-04-14T15:21:36.914Z,23.10
2019-04-14T15:24:05.382Z,23.18
2019-04-14T15:26:33.807Z,23.27
2019-04-14T15:29:02.332Z,23.22
2019-04-14T15:31:30.855Z,23.22
2019-04-14T15:33:59.222Z,23.33
2019-04-14T15:36:27.700Z,23.01
2019-04-14T15:38:56.085Z,22.75
2019-04-14T15:41:24.520Z,22.96
2019-04-14T15:43:52.917Z,22.95
2019-04-14T15:46:21.308Z,22.63
2019-04-14T15:48:49.776Z,22.66
2019-04-14T15:51:18.172Z,22.84
2019-04-14T15:53:46.663Z,22.90
2019-04-14T15:56:16.701Z,22.94
2019-04-14T15:58:46.786Z,22.93
2019-04-14T16:01:19.490Z,23.12
2019-04-14T16:04:05.752Z,23.07
2019-04-14T16:06:47.633Z,23.04
2019-04-14T16:09:23.454Z,23.00
2019-04-14T16:12:05.166Z,23.20
2019-04-14T16:14:51.398Z,23.22
2019-04-14T16:17:37.535Z,23.15
2019-04-14T16:20:08.144Z,23.15
2019-04-14T16:22:38.925Z,23.03
2019-04-14T16:25:07.002Z,22.89
2019-04-14T16:27:37.024Z,22.97
2019-04-14T16:30:10.364Z,22.99
2019-04-14T16:32:46.399Z,23.00
2019-04-14T16:35:22.153Z,23.08
2019-04-14T16:37:50.632Z,23.10
2019-04-14T16:40:19.046Z,23.12
2019-04-14T16:42:47.431Z,23.07
2019-04-14T16:45:15.938Z,23.12
2019-04-14T16:47:44.340Z,23.13
2019-04-14T16:50:12.741Z,23.00
2019-04-14T16:52:51.547Z,23.06
2019-04-14T16:55:21.594Z,23.35
2019-04-14T16:58:00.664Z,23.93
2019-04-14T17:00:30.721Z,24.49
2019-04-14T17:02:59.115Z,24.67
2019-04-14T17:05:27.513Z,24.91
2019-04-14T17:07:55.972Z,25.09
2019-04-14T17:10:24.304Z,25.38
2019-04-14T17:12:52.691Z,25.56
2019-04-14T17:15:22.730Z,25.74
2019-04-14T17:18:07.667Z,25.87
2019-04-14T17:20:55.705Z,25.99
2019-04-14T17:23:42.300Z,26.22
2019-04-14T17:26:12.357Z,26.32
2019-04-14T17:28:42.396Z,26.46
2019-04-14T17:31:18.375Z,26.61
2019-04-14T17:33:51.257Z,26.77
2019-04-14T17:36:24.042Z,26.90
2019-04-14T17:39:09.127Z,27.09
2019-04-14T17:41:39.191Z,27.23
2019-04-14T17:44:09.224Z,27.34
2019-04-14T17:46:51.315Z,27.52
2019-04-14T17:49:21.393Z,27.62
2019-04-14T17:51:54.212Z,27.75
2019-04-14T17:54:30.318Z,27.81
2019-04-14T17:57:16.784Z,27.92
2019-04-14T17:59:46.823Z,27.95
2019-04-14T18:02:16.855Z,28.15
2019-04-14T18:04:49.870Z,28.23
2019-04-14T18:07:25.745Z,28.33
2019-04-14T18:09:58.467Z,28.47
2019-04-14T18:12:28.504Z,28.52
2019-04-14T18:14:58.550Z,28.62
2019-04-14T18:17:28.609Z,28.72
2019-04-14T18:20:01.480Z,28.79
2019-04-14T18:22:29.882Z,28.89
2019-04-14T18:24:58.299Z,28.93
2019-04-14T18:27:26.810Z,28.99
2019-04-14T18:30:09.055Z,29.13
2019-04-14T18:32:41.787Z,29.00
2019-04-14T18:35:27.806Z,29.22
2019-04-14T18:38:12.981Z,29.26
2019-04-14T18:40:43.016Z,29.32
2019-04-14T18:43:21.917Z,29.35
2019-04-14T18:45:57.637Z,29.52
2019-04-14T18:48:30.692Z,29.51
2019-04-14T18:51:00.775Z,29.50
2019-04-14T18:53:39.391Z,29.66
2019-04-14T18:56:09.467Z,29.68
2019-04-14T18:58:39.495Z,29.73
2019-04-14T19:01:09.597Z,29.78
2019-04-14T19:03:37.985Z,29.85
2019-04-14T19:06:06.376Z,29.81
2019-04-14T19:08:34.783Z,29.97
2019-04-14T19:11:07.256Z,29.98
2019-04-14T19:13:37.428Z,30.00
2019-04-14T19:16:13.168Z,29.97
2019-04-14T19:18:49.192Z,30.13
2019-04-14T19:21:22.359Z,30.20
2019-04-14T19:23:50.858Z,30.23
2019-04-14T19:26:19.255Z,30.24
2019-04-14T19:28:47.673Z,30.24
2019-04-14T19:31:16.132Z,30.30
2019-04-14T19:33:44.563Z,30.41
2019-04-14T19:36:12.971Z,30.43
2019-04-14T19:38:41.418Z,30.51
2019-04-14T19:41:09.817Z,30.51
2019-04-14T19:43:38.253Z,30.54
2019-04-14T19:46:06.654Z,30.57
2019-04-14T19:48:35.091Z,30.67
2019-04-14T19:51:03.489Z,30.66
2019-04-14T19:53:31.932Z,30.69
2019-04-14T19:56:00.423Z,30.63
2019-04-14T19:58:28.844Z,30.75
2019-04-14T20:00:57.236Z,30.80
2019-04-14T20:03:25.668Z,30.79
2019-04-14T20:05:54.070Z,30.89
2019-04-14T20:08:23.071Z,30.89
2019-04-14T20:10:51.474Z,30.87
2019-04-14T20:13:19.904Z,31.03
2019-04-14T20:15:55.793Z,30.99
2019-04-14T20:18:41.831Z,31.01
2019-04-14T20:21:14.533Z,31.03
2019-04-14T20:23:44.586Z,31.11
2019-04-14T20:26:17.332Z,31.09
2019-04-14T20:28:54.219Z,31.12
2019-04-14T20:31:27.130Z,31.24
2019-04-14T20:33:55.558Z,31.18
2019-04-14T20:36:24.133Z,31.12
2019-04-14T20:38:52.569Z,31.35
2019-04-14T20:41:20.959Z,31.28
2019-04-14T20:43:49.386Z,31.33
2019-04-14T20:46:17.781Z,31.31
2019-04-14T20:48:46.204Z,31.41
2019-04-14T20:51:14.646Z,31.37
2019-04-14T20:53:43.080Z,31.48
2019-04-14T20:56:11.475Z,31.53
2019-04-14T20:58:39.914Z,31.98
2019-04-14T21:01:09.979Z,32.36
2019-04-14T21:03:42.690Z,32.35
2019-04-14T21:06:27.783Z,31.94
2019-04-14T21:09:13.041Z,32.05
2019-04-14T21:12:01.225Z,32.06
2019-04-14T21:14:49.741Z,32.45
2019-04-14T21:17:19.780Z,32.53
2019-04-14T21:20:05.204Z,33.00
2019-04-14T21:22:35.325Z,33.05
2019-04-14T21:25:21.906Z,32.95
2019-04-14T21:27:51.965Z,33.31
2019-04-14T21:30:24.763Z,33.23
2019-04-14T21:33:12.973Z,33.45
2019-04-14T21:35:55.092Z,33.57
2019-04-14T21:38:30.884Z,33.46
2019-04-14T21:41:00.960Z,33.67
2019-04-14T21:43:29.343Z,33.74
2019-04-14T21:45:57.737Z,33.80
2019-04-14T21:48:26.141Z,33.91
2019-04-14T21:50:54.542Z,34.03
2019-04-14T21:53:22.992Z,33.80
2019-04-14T21:55:51.458Z,33.97
2019-04-14T21:58:27.643Z,34.04
2019-04-14T22:01:35.999Z,34.03
2019-04-14T22:04:22.178Z,34.17
2019-04-14T22:06:54.925Z,34.18
2019-04-14T22:09:24.958Z,34.53
2019-04-14T22:11:53.404Z,34.31
2019-04-14T22:14:21.807Z,34.35
2019-04-14T22:16:50.224Z,34.60
2019-04-14T22:19:19.571Z,34.54
2019-04-14T22:21:47.965Z,34.49
2019-04-14T22:24:16.558Z,34.74
2019-04-14T22:26:45.151Z,34.80
2019-04-14T22:29:13.548Z,34.67
2019-04-14T22:31:41.944Z,34.65
2019-04-14T22:34:10.342Z,34.63
2019-04-14T22:36:38.748Z,34.59
2019-04-14T22:39:08.815Z,34.76
2019-04-14T22:41:37.274Z,34.66
2019-04-14T22:44:05.672Z,34.62
2019-04-14T22:46:34.081Z,34.64
2019-04-14T22:49:02.474Z,34.68
2019-04-14T22:51:30.872Z,34.58
2019-04-14T22:53:59.284Z,34.84
2019-04-14T22:56:38.535Z,34.72
2019-04-14T22:58:57.805Z,34.70
2019-04-14T23:01:27.844Z,34.80
2019-04-14T23:03:57.889Z,34.72
2019-04-14T23:06:27.926Z,34.68
2019-04-14T23:08:57.988Z,34.94
2019-04-14T23:11:33.953Z,34.55
2019-04-14T23:14:19.299Z,34.95
2019-04-14T23:17:05.603Z,34.86
2019-04-14T23:19:38.243Z,34.91
2019-04-14T23:22:13.832Z,34.92
2019-04-14T23:24:43.877Z,35.04
2019-04-14T23:27:12.271Z,34.88
2019-04-14T23:29:40.688Z,35.00
2019-04-14T23:32:09.261Z,34.83
2019-04-14T23:34:37.659Z,35.22
2019-04-14T23:37:06.066Z,34.96
2019-04-14T23:39:34.468Z,35.08
2019-04-14T23:42:02.868Z,35.05
2019-04-14T23:44:31.282Z,35.04
2019-04-14T23:46:59.832Z,35.02
2019-04-14T23:49:28.246Z,35.17
2019-04-14T23:51:56.648Z,35.25
2019-04-14T23:54:25.052Z,35.25
2019-04-14T23:57:04.808Z,35.33
2019-04-14T23:59:23.616Z,35.81
